createdAt,value
2022-07-28T00:00:28.054Z,17.99
2022-07-28T00:03:15.109Z,17.97
2022-07-28T00:05:51.076Z,17.93
2022-07-28T00:08:27.055Z,17.90
2022-07-28T00:11:03.005Z,17.84
2022-07-28T00:13:38.961Z,17.79
2022-07-28T00:16:15.168Z,17.74
2022-07-28T00:18:51.149Z,17.68
2022-07-28T00:21:27.507Z,17.63
2022-07-28T00:24:03.544Z,17.58
2022-07-28T00:26:39.681Z,17.55
2022-07-28T00:29:15.691Z,17.49
2022-07-28T00:31:51.786Z,17.43
2022-07-28T00:34:27.823Z,17.38
2022-07-28T00:37:06.833Z,17.37
2022-07-28T00:39:43.092Z,17.32
2022-07-28T00:42:22.663Z,17.28
2022-07-28T00:44:58.624Z,17.22
2022-07-28T00:47:34.668Z,17.19
2022-07-28T00:50:14.201Z,17.19
2022-07-28T00:52:50.354Z,17.20
2022-07-28T00:55:27.231Z,17.18
2022-07-28T00:58:03.323Z,17.15
2022-07-28T01:00:39.450Z,17.08
2022-07-28T01:03:15.847Z,17.04
2022-07-28T01:06:21.655Z,17.01
2022-07-28T01:09:19.449Z,16.99
2022-07-28T01:12:08.391Z,16.96
2022-07-28T01:14:59.613Z,16.93
2022-07-28T01:17:49.860Z,16.91
2022-07-28T01:20:36.846Z,16.86
2022-07-28T01:23:57.507Z,16.86
2022-07-28T01:26:58.196Z,16.83
2022-07-28T01:30:22.713Z,16.83
2022-07-28T01:33:11.357Z,16.84
2022-07-28T01:35:58.496Z,16.84
2022-07-28T01:38:38.267Z,16.82
2022-07-28T01:41:22.119Z,16.82
2022-07-28T01:44:07.806Z,16.84
2022-07-28T01:46:45.626Z,16.86
2022-07-28T01:49:24.505Z,16.86
2022-07-28T01:52:04.281Z,16.90
2022-07-28T01:54:44.792Z,16.92
2022-07-28T01:57:22.611Z,16.94
2022-07-28T02:00:00.367Z,16.95
2022-07-28T02:02:38.565Z,16.97
2022-07-28T02:05:21.916Z,16.97
2022-07-28T02:08:00.935Z,16.94
2022-07-28T02:10:38.843Z,16.92
2022-07-28T02:13:15.870Z,16.90
2022-07-28T02:15:51.995Z,16.93
2022-07-28T02:18:29.318Z,16.92
2022-07-28T02:21:08.285Z,16.91
2022-07-28T02:23:48.879Z,16.92
2022-07-28T02:26:33.450Z,16.92
2022-07-28T02:29:40.422Z,16.92
2022-07-28T02:32:27.405Z,16.90
2022-07-28T02:35:14.859Z,16.89
2022-07-28T02:38:00.584Z,16.89
2022-07-28T02:40:44.132Z,16.90
2022-07-28T02:43:28.077Z,16.90
2022-07-28T02:46:33.699Z,16.89
2022-07-28T02:49:19.276Z,16.89
2022-07-28T02:51:57.604Z,16.90
2022-07-28T02:54:35.676Z,16.90
2022-07-28T02:57:13.783Z,16.91
2022-07-28T02:59:51.505Z,16.91
2022-07-28T03:02:31.016Z,16.93
2022-07-28T03:05:11.499Z,16.93
2022-07-28T03:07:52.801Z,16.90
2022-07-28T03:10:33.605Z,16.88
2022-07-28T03:13:11.439Z,16.88
2022-07-28T03:15:47.394Z,16.90
2022-07-28T03:18:23.261Z,16.88
2022-07-28T03:20:59.834Z,16.86
2022-07-28T03:23:41.535Z,16.87
2022-07-28T03:26:22.442Z,16.85
2022-07-28T03:29:00.812Z,16.86
2022-07-28T03:31:40.259Z,16.87
2022-07-28T03:34:16.896Z,16.87
2022-07-28T03:37:01.326Z,16.84
2022-07-28T03:39:45.398Z,16.83
2022-07-28T03:42:24.142Z,16.80
2022-07-28T03:45:01.266Z,16.81
2022-07-28T03:47:37.207Z,16.83
2022-07-28T03:50:14.085Z,16.83
2022-07-28T03:52:50.032Z,16.84
2022-07-28T03:55:26.952Z,16.84
2022-07-28T03:58:02.946Z,16.85
2022-07-28T04:00:39.119Z,16.84
2022-07-28T04:03:36.352Z,16.85
2022-07-28T04:06:11.123Z,16.87
2022-07-28T04:08:47.328Z,16.86
2022-07-28T04:11:23.290Z,16.83
2022-07-28T04:13:59.682Z,16.80
2022-07-28T04:16:35.807Z,16.78
2022-07-28T04:19:11.763Z,16.79
2022-07-28T04:21:47.694Z,16.83
2022-07-28T04:24:23.665Z,16.87
2022-07-28T04:26:59.673Z,16.89
2022-07-28T04:29:35.671Z,16.92
2022-07-28T04:32:11.918Z,16.93
2022-07-28T04:34:49.245Z,16.94
2022-07-28T04:37:25.355Z,16.94
2022-07-28T04:40:15.375Z,16.95
2022-07-28T04:42:51.380Z,16.94
2022-07-28T04:45:27.569Z,16.96
2022-07-28T04:48:03.520Z,17.00
2022-07-28T04:50:40.853Z,17.01
2022-07-28T04:53:18.540Z,17.01
2022-07-28T04:55:57.165Z,17.01
2022-07-28T04:58:33.960Z,17.05
2022-07-28T05:01:09.960Z,17.11
2022-07-28T05:03:45.979Z,17.19
2022-07-28T05:06:22.161Z,17.31
2022-07-28T05:08:58.122Z,17.39
2022-07-28T05:11:34.020Z,17.48
2022-07-28T05:14:12.411Z,17.51
2022-07-28T05:16:49.088Z,17.55
2022-07-28T05:19:25.156Z,17.58
2022-07-28T05:22:01.674Z,17.59
2022-07-28T05:24:37.817Z,17.58
2022-07-28T05:27:13.903Z,17.58
2022-07-28T05:29:51.703Z,17.54
2022-07-28T05:32:27.806Z,17.48
2022-07-28T05:35:03.762Z,17.43
2022-07-28T05:37:41.323Z,17.41
2022-07-28T05:40:19.620Z,17.38
2022-07-28T05:42:56.199Z,17.36
2022-07-28T05:45:34.098Z,17.32
2022-07-28T05:48:10.840Z,17.29
2022-07-28T05:50:46.944Z,17.30
2022-07-28T05:53:22.969Z,17.33
2022-07-28T05:56:00.067Z,17.30
2022-07-28T05:58:37.659Z,17.29
2022-07-28T06:01:13.740Z,17.29
2022-07-28T06:04:09.914Z,17.31
2022-07-28T06:06:48.855Z,17.31
2022-07-28T06:09:24.963Z,17.34
2022-07-28T06:12:00.873Z,17.42
2022-07-28T06:14:36.844Z,17.55
2022-07-28T06:17:15.052Z,17.74
2022-07-28T06:19:51.140Z,18.07
2022-07-28T06:22:27.036Z,18.75
2022-07-28T06:25:03.127Z,19.45
2022-07-28T06:27:39.127Z,20.13
2022-07-28T06:30:17.656Z,20.75
2022-07-28T06:32:54.651Z,21.52
2022-07-28T06:35:30.860Z,22.35
2022-07-28T06:38:21.400Z,22.97
2022-07-28T06:40:57.757Z,23.66
2022-07-28T06:43:36.756Z,24.30
2022-07-28T06:46:19.510Z,24.87
2022-07-28T06:48:55.645Z,25.31
2022-07-28T06:51:32.233Z,25.73
2022-07-28T06:54:11.388Z,26.21
2022-07-28T06:56:49.468Z,26.58
2022-07-28T06:59:25.632Z,27.29
2022-07-28T07:02:02.859Z,27.59
2022-07-28T07:04:39.578Z,27.78
2022-07-28T07:07:17.228Z,27.83
2022-07-28T07:09:53.788Z,27.93
2022-07-28T07:12:30.014Z,28.09
2022-07-28T07:15:07.545Z,28.32
2022-07-28T07:17:43.550Z,28.46
2022-07-28T07:20:19.599Z,28.52
2022-07-28T07:22:55.776Z,28.84
2022-07-28T07:25:32.083Z,29.16
2022-07-28T07:28:08.246Z,29.18
2022-07-28T07:30:44.306Z,29.10
2022-07-28T07:33:20.264Z,29.04
2022-07-28T07:35:56.290Z,29.01
2022-07-28T07:38:32.286Z,29.17
2022-07-28T07:41:08.198Z,29.07
2022-07-28T07:43:47.640Z,28.91
2022-07-28T07:46:23.991Z,28.96
2022-07-28T07:49:00.155Z,29.24
2022-07-28T07:51:36.340Z,29.21
2022-07-28T07:54:12.681Z,28.95
2022-07-28T07:56:48.879Z,28.82
2022-07-28T07:59:25.080Z,28.80
2022-07-28T08:02:01.193Z,28.83
2022-07-28T08:04:38.666Z,28.95
2022-07-28T08:07:16.089Z,28.93
2022-07-28T08:09:52.169Z,29.01
2022-07-28T08:12:28.247Z,29.23
2022-07-28T08:15:04.762Z,29.16
2022-07-28T08:17:40.680Z,29.07
2022-07-28T08:20:17.887Z,29.19
2022-07-28T08:22:56.914Z,28.95
2022-07-28T08:25:36.182Z,29.04
2022-07-28T08:28:12.251Z,29.15
2022-07-28T08:30:48.150Z,29.22
2022-07-28T08:33:24.131Z,28.93
2022-07-28T08:36:00.227Z,28.52
2022-07-28T08:38:36.385Z,28.22
2022-07-28T08:41:21.740Z,28.12
2022-07-28T08:44:03.623Z,28.10
2022-07-28T08:46:44.360Z,27.97
2022-07-28T08:49:21.412Z,27.92
2022-07-28T08:52:02.157Z,27.90
2022-07-28T08:54:42.177Z,27.77
2022-07-28T08:57:27.047Z,27.47
2022-07-28T09:00:03.416Z,27.22
2022-07-28T09:02:45.757Z,27.08
2022-07-28T09:05:22.975Z,27.03
2022-07-28T09:08:01.438Z,27.04
2022-07-28T09:10:37.621Z,26.93
2022-07-28T09:13:13.767Z,26.71
2022-07-28T09:15:51.762Z,26.34
2022-07-28T09:18:27.877Z,26.15
2022-07-28T09:21:04.173Z,25.93
2022-07-28T09:23:50.799Z,25.80
2022-07-28T09:26:26.916Z,25.63
2022-07-28T09:29:07.781Z,25.57
2022-07-28T09:31:57.202Z,25.67
2022-07-28T09:34:42.668Z,25.69
2022-07-28T09:37:27.977Z,25.46
2022-07-28T09:40:17.966Z,25.27
2022-07-28T09:42:57.377Z,25.10
2022-07-28T09:45:34.380Z,25.01
2022-07-28T09:48:20.128Z,25.15
2022-07-28T09:51:13.415Z,25.32
2022-07-28T09:53:49.486Z,25.41
2022-07-28T09:56:29.914Z,25.40
2022-07-28T09:59:06.857Z,25.43
2022-07-28T10:02:01.662Z,25.51
2022-07-28T10:04:42.197Z,25.49
2022-07-28T10:07:19.007Z,25.33
2022-07-28T10:10:07.191Z,25.28
2022-07-28T10:12:43.152Z,25.40
2022-07-28T10:15:46.740Z,25.34
2022-07-28T10:18:27.190Z,25.21
2022-07-28T10:21:03.671Z,25.21
2022-07-28T10:23:42.422Z,25.25
2022-07-28T10:26:21.427Z,25.40
2022-07-28T10:29:01.375Z,25.41
2022-07-28T10:31:50.234Z,25.35
2022-07-28T10:34:35.474Z,25.33
2022-07-28T10:37:19.228Z,25.30
2022-07-28T10:40:10.538Z,25.25
2022-07-28T10:42:47.134Z,25.15
2022-07-28T10:45:42.027Z,25.26
2022-07-28T10:48:23.920Z,25.43
2022-07-28T10:51:02.159Z,25.49
2022-07-28T10:53:48.309Z,25.44
2022-07-28T10:56:47.454Z,25.42
2022-07-28T11:00:12.649Z,25.38
2022-07-28T11:02:59.007Z,25.54
2022-07-28T11:05:44.152Z,25.62
2022-07-28T11:08:34.553Z,25.67
2022-07-28T11:11:10.978Z,25.59
2022-07-28T11:13:47.018Z,25.43
2022-07-28T11:16:31.720Z,25.50
2022-07-28T11:19:40.122Z,25.57
2022-07-28T11:22:29.431Z,25.63
2022-07-28T11:25:22.991Z,25.53
2022-07-28T11:28:12.140Z,25.46
2022-07-28T11:30:58.555Z,25.49
2022-07-28T11:34:00.091Z,25.64
2022-07-28T11:37:04.926Z,25.69
2022-07-28T11:39:44.088Z,25.73
2022-07-28T11:42:33.906Z,25.76
2022-07-28T11:45:38.459Z,25.74
2022-07-28T11:48:26.433Z,25.58
2022-07-28T11:51:16.866Z,25.53
2022-07-28T11:53:55.685Z,25.54
2022-07-28T11:56:37.507Z,25.53
2022-07-28T11:59:16.609Z,25.62
2022-07-28T12:01:59.116Z,25.75
2022-07-28T12:04:35.247Z,25.78
2022-07-28T12:07:13.066Z,25.78
2022-07-28T12:09:49.182Z,25.87
2022-07-28T12:12:28.053Z,25.89
2022-07-28T12:15:07.064Z,25.93
2022-07-28T12:17:44.149Z,26.05
2022-07-28T12:20:21.648Z,26.04
2022-07-28T12:23:06.414Z,26.07
2022-07-28T12:25:49.424Z,26.04
2022-07-28T12:28:29.651Z,26.07
2022-07-28T12:31:17.777Z,26.03
2022-07-28T12:33:55.628Z,25.92
2022-07-28T12:36:33.094Z,25.80
2022-07-28T12:39:13.316Z,25.73
2022-07-28T12:41:49.811Z,25.72
2022-07-28T12:44:35.444Z,25.88
2022-07-28T12:47:14.210Z,25.98
2022-07-28T12:50:08.263Z,25.93
2022-07-28T12:52:46.758Z,25.86
2022-07-28T12:55:32.387Z,25.86
2022-07-28T12:58:21.860Z,25.91
2022-07-28T13:00:59.685Z,25.87
2022-07-28T13:03:37.782Z,25.83
2022-07-28T13:06:17.252Z,25.76
2022-07-28T13:08:53.273Z,25.69
2022-07-28T13:11:45.960Z,25.60
2022-07-28T13:14:43.809Z,25.52
2022-07-28T13:17:20.073Z,25.41
2022-07-28T13:20:10.225Z,25.31
2022-07-28T13:22:46.880Z,25.38
2022-07-28T13:25:23.740Z,25.50
2022-07-28T13:28:00.310Z,25.54
2022-07-28T13:30:36.156Z,25.57
2022-07-28T13:33:13.929Z,25.67
2022-07-28T13:35:50.705Z,25.66
2022-07-28T13:38:26.746Z,25.64
2022-07-28T13:41:02.966Z,25.59
2022-07-28T13:43:38.961Z,25.56
2022-07-28T13:46:17.821Z,25.67
2022-07-28T13:48:57.643Z,25.78
2022-07-28T13:51:34.782Z,25.88
2022-07-28T13:54:11.913Z,26.00
2022-07-28T13:56:48.687Z,26.13
2022-07-28T13:59:48.779Z,26.19
2022-07-28T14:02:26.015Z,26.16
2022-07-28T14:05:02.134Z,26.17
2022-07-28T14:07:38.399Z,26.15
2022-07-28T14:10:16.982Z,26.07
2022-07-28T14:12:55.855Z,26.06
2022-07-28T14:15:32.129Z,26.04
2022-07-28T14:18:09.061Z,26.04
2022-07-28T14:20:45.288Z,25.93
2022-07-28T14:23:21.176Z,25.94
2022-07-28T14:26:18.249Z,26.04
2022-07-28T14:28:53.114Z,26.06
2022-07-28T14:31:29.131Z,26.07
2022-07-28T14:34:07.006Z,26.07
2022-07-28T14:36:47.217Z,26.03
2022-07-28T14:39:23.494Z,25.98
2022-07-28T14:41:59.947Z,25.93
2022-07-28T14:44:37.151Z,25.90
2022-07-28T14:47:13.353Z,25.88
2022-07-28T14:49:58.282Z,25.82
2022-07-28T14:52:34.812Z,25.82
2022-07-28T14:55:13.093Z,25.83
2022-07-28T14:57:54.689Z,25.81
2022-07-28T15:00:31.469Z,25.80
2022-07-28T15:03:07.783Z,25.77
2022-07-28T15:05:44.355Z,25.67
2022-07-28T15:08:20.469Z,25.61
2022-07-28T15:11:02.275Z,25.52
2022-07-28T15:13:38.302Z,25.49
2022-07-28T15:16:15.003Z,25.50
2022-07-28T15:18:52.161Z,25.55
2022-07-28T15:21:32.974Z,25.54
2022-07-28T15:24:14.587Z,25.55
2022-07-28T15:26:50.909Z,25.52
2022-07-28T15:29:27.215Z,25.52
2022-07-28T15:32:13.135Z,25.52
2022-07-28T15:34:52.477Z,25.48
2022-07-28T15:37:28.743Z,25.44
2022-07-28T15:40:05.296Z,25.38
2022-07-28T15:42:41.242Z,25.36
2022-07-28T15:45:17.857Z,25.29
2022-07-28T15:47:54.124Z,25.25
2022-07-28T15:50:30.863Z,25.23
2022-07-28T15:53:06.846Z,25.18
2022-07-28T15:55:46.226Z,25.13
2022-07-28T15:58:26.438Z,25.10
2022-07-28T16:01:03.255Z,25.03
2022-07-28T16:03:39.716Z,24.97
2022-07-28T16:06:15.744Z,24.94
2022-07-28T16:08:52.083Z,24.91
2022-07-28T16:11:28.389Z,24.89
2022-07-28T16:14:04.464Z,24.86
2022-07-28T16:16:42.703Z,24.80
2022-07-28T16:19:46.206Z,24.78
2022-07-28T16:22:15.055Z,24.76
2022-07-28T16:24:53.050Z,24.75
2022-07-28T16:27:28.920Z,24.73
2022-07-28T16:30:05.244Z,24.71
2022-07-28T16:32:41.732Z,24.67
2022-07-28T16:35:18.174Z,24.63
2022-07-28T16:37:54.099Z,24.60
2022-07-28T16:40:31.489Z,24.56
2022-07-28T16:43:08.191Z,24.53
2022-07-28T16:45:44.456Z,24.49
2022-07-28T16:48:20.818Z,24.46
2022-07-28T16:50:56.976Z,24.44
2022-07-28T16:53:33.806Z,24.42
2022-07-28T16:56:10.263Z,24.38
2022-07-28T16:58:46.541Z,24.33
2022-07-28T17:01:22.618Z,24.28
2022-07-28T17:03:58.725Z,24.22
2022-07-28T17:06:36.917Z,24.20
2022-07-28T17:09:13.489Z,24.16
2022-07-28T17:11:49.455Z,24.10
2022-07-28T17:14:25.319Z,24.06
2022-07-28T17:17:01.232Z,23.99
2022-07-28T17:19:39.851Z,23.96
2022-07-28T17:22:20.272Z,23.90
2022-07-28T17:24:56.206Z,23.85
2022-07-28T17:27:37.958Z,23.80
2022-07-28T17:30:16.149Z,23.75
2022-07-28T17:32:52.241Z,23.71
2022-07-28T17:35:34.467Z,23.67
2022-07-28T17:38:12.756Z,23.61
2022-07-28T17:40:51.141Z,23.55
2022-07-28T17:43:29.179Z,23.46
2022-07-28T17:46:10.506Z,23.39
2022-07-28T17:48:47.632Z,23.29
2022-07-28T17:51:23.771Z,23.21
2022-07-28T17:53:59.928Z,23.13
2022-07-28T17:56:36.945Z,23.04
2022-07-28T17:59:16.067Z,22.93
2022-07-28T18:01:52.041Z,22.85
2022-07-28T18:04:28.094Z,22.76
2022-07-28T18:07:04.086Z,22.66
2022-07-28T18:09:41.979Z,22.55
2022-07-28T18:12:17.993Z,22.45
2022-07-28T18:14:54.762Z,22.36
2022-07-28T18:17:31.521Z,22.25
2022-07-28T18:20:09.264Z,22.14
2022-07-28T18:22:46.301Z,22.04
2022-07-28T18:25:23.225Z,21.91
2022-07-28T18:27:59.496Z,21.78
2022-07-28T18:30:36.878Z,21.68
2022-07-28T18:33:12.963Z,21.58
2022-07-28T18:35:48.901Z,21.46
2022-07-28T18:38:24.886Z,21.35
2022-07-28T18:41:01.063Z,21.23
2022-07-28T18:43:37.261Z,21.09
2022-07-28T18:46:13.754Z,20.96
2022-07-28T18:48:53.753Z,20.81
2022-07-28T18:51:33.296Z,20.68
2022-07-28T18:54:09.887Z,20.53
2022-07-28T18:56:45.949Z,20.42
2022-07-28T18:59:21.905Z,20.29
2022-07-28T19:01:58.061Z,20.16
2022-07-28T19:04:34.471Z,20.03
2022-07-28T19:07:10.898Z,19.91
2022-07-28T19:09:47.107Z,19.82
2022-07-28T19:12:24.498Z,19.72
2022-07-28T19:15:00.974Z,19.61
2022-07-28T19:17:37.214Z,19.52
2022-07-28T19:20:16.849Z,19.45
2022-07-28T19:22:52.888Z,19.34
2022-07-28T19:25:30.489Z,19.24
2022-07-28T19:28:06.851Z,19.14
2022-07-28T19:30:44.079Z,19.03
2022-07-28T19:33:22.026Z,18.93
2022-07-28T19:36:00.793Z,18.78
2022-07-28T19:38:36.959Z,18.70
2022-07-28T19:41:14.075Z,18.62
2022-07-28T19:43:50.064Z,18.53
2022-07-28T19:46:26.522Z,18.47
2022-07-28T19:49:02.921Z,18.40
2022-07-28T19:51:39.463Z,18.32
2022-07-28T19:54:21.067Z,18.24
2022-07-28T19:56:57.024Z,18.16
2022-07-28T19:59:33.191Z,18.10
2022-07-28T20:02:11.642Z,18.05
2022-07-28T20:04:47.879Z,17.99
2022-07-28T20:07:24.334Z,17.92
2022-07-28T20:10:00.982Z,17.86
2022-07-28T20:12:37.374Z,17.79
2022-07-28T20:15:15.565Z,17.73
2022-07-28T20:17:52.027Z,17.66
2022-07-28T20:20:28.792Z,17.60
2022-07-28T20:23:04.951Z,17.54
2022-07-28T20:25:41.287Z,17.49
2022-07-28T20:28:17.518Z,17.46
2022-07-28T20:30:53.916Z,17.45
2022-07-28T20:33:30.663Z,17.44
2022-07-28T20:36:07.310Z,17.42
2022-07-28T20:38:45.275Z,17.41
2022-07-28T20:41:21.317Z,17.40
2022-07-28T20:44:27.398Z,17.39
2022-07-28T20:46:53.166Z,17.34
2022-07-28T20:49:29.675Z,17.29
2022-07-28T20:52:06.865Z,17.26
2022-07-28T20:54:42.721Z,17.19
2022-07-28T20:57:18.699Z,17.15
2022-07-28T20:59:54.618Z,17.15
2022-07-28T21:02:30.671Z,17.14
2022-07-28T21:05:07.991Z,17.11
2022-07-28T21:07:59.878Z,17.09
2022-07-28T21:10:37.557Z,17.06
2022-07-28T21:13:13.475Z,17.03
2022-07-28T21:15:49.680Z,16.99
2022-07-28T21:18:25.828Z,16.94
2022-07-28T21:21:01.729Z,16.92
2022-07-28T21:23:37.670Z,16.91
2022-07-28T21:26:16.226Z,16.89
2022-07-28T21:29:10.109Z,16.85
2022-07-28T21:32:03.985Z,16.82
2022-07-28T21:34:42.494Z,16.78
2022-07-28T21:37:18.486Z,16.71
2022-07-28T21:39:54.469Z,16.69
2022-07-28T21:42:30.356Z,16.64
2022-07-28T21:45:11.126Z,16.60
2022-07-28T21:47:47.821Z,16.58
2022-07-28T21:50:24.133Z,16.53
2022-07-28T21:53:02.001Z,16.48
2022-07-28T21:55:38.132Z,16.47
2022-07-28T21:58:14.333Z,16.46
2022-07-28T22:00:50.399Z,16.45
2022-07-28T22:03:26.389Z,16.41
2022-07-28T22:06:03.215Z,16.36
2022-07-28T22:08:40.302Z,16.41
2022-07-28T22:11:16.189Z,16.46
2022-07-28T22:13:52.387Z,16.54
2022-07-28T22:16:28.401Z,16.61
2022-07-28T22:19:04.449Z,16.65
2022-07-28T22:21:40.445Z,16.67
2022-07-28T22:24:17.247Z,16.69
2022-07-28T22:26:54.022Z,16.73
2022-07-28T22:29:31.082Z,16.74
2022-07-28T22:32:08.362Z,16.74
2022-07-28T22:34:44.561Z,16.72
2022-07-28T22:37:20.566Z,16.71
2022-07-28T22:39:57.075Z,16.70
2022-07-28T22:42:33.192Z,16.70
2022-07-28T22:45:11.864Z,16.69
2022-07-28T22:47:47.844Z,16.67
2022-07-28T22:50:23.801Z,16.67
2022-07-28T22:52:59.785Z,16.67
2022-07-28T22:58:29.438Z,16.64
2022-07-28T23:01:07.103Z,16.61
2022-07-28T23:03:43.482Z,16.62
2022-07-28T23:06:22.154Z,16.61
2022-07-28T23:08:58.095Z,16.60
2022-07-28T23:11:34.009Z,16.60
2022-07-28T23:14:09.864Z,16.60
2022-07-28T23:16:45.782Z,16.58
2022-07-28T23:19:22.314Z,16.57
2022-07-28T23:21:58.301Z,16.55
2022-07-28T23:24:34.360Z,16.52
2022-07-28T23:27:10.346Z,16.48
2022-07-28T23:29:46.370Z,16.44
2022-07-28T23:32:22.224Z,16.40
2022-07-28T23:34:58.238Z,16.37
2022-07-28T23:37:34.492Z,16.34
2022-07-28T23:40:14.461Z,16.31
2022-07-28T23:42:50.407Z,16.29
2022-07-28T23:45:26.951Z,16.27
2022-07-28T23:48:02.959Z,16.24
2022-07-28T23:50:39.030Z,16.22
2022-07-28T23:53:14.978Z,16.19
2022-07-28T23:55:51.550Z,16.18
2022-07-28T23:58:27.760Z,16.18
